Time;durP1;ratioP1;P1;durP2;ratioP2;P2;SDS_P1;SDS_P2;PMS_P1;PMS_P2;Temp;Humidity;BMP_temperature;BMP_pressure;BME280_temperature;BME280_humidity;BME280_pressure;Samples;Min_cycle;Max_cycle;Signal;HPM_P1;HPM_P2
2022/02/08 00:14:53;;;;;;;27.27;12.48;;;;;;;3.33;100.00;99255.41;30733779;28;20521;-73
2022/02/08 00:29:55;;;;;;;33.47;14.33;;;;;;;3.44;100.00;99237.34;30700660;28;20139;-74
2022/02/08 00:45:11;;;;;;;44.40;14.30;;;;;;;3.40;100.00;99237.38;30704106;28;20065;-74
2022/02/08 01:00:14;;;;;;;30.27;13.10;;;;;;;3.49;100.00;99238.88;30712061;28;20049;-74
2022/02/08 01:15:17;;;;;;;27.70;12.77;;;;;;;3.45;100.00;99227.38;30717243;28;20302;-72
2022/02/08 01:30:31;;;;;;;43.57;14.03;;;;;;;3.36;100.00;99225.88;30705161;28;20142;-74
2022/02/08 02:00:44;;;;;;;28.80;11.90;;;;;;;3.29;100.00;99236.66;30702470;28;20513;-74
2022/02/08 02:15:46;;;;;;;24.57;11.83;;;;;;;3.25;100.00;99240.50;30692925;28;20455;-73
2022/02/08 02:30:48;;;;;;;36.60;13.53;;;;;;;3.26;100.00;99258.91;30711062;28;20402;-73
2022/02/08 02:45:50;;;;;;;33.87;12.87;;;;;;;3.20;100.00;99246.28;30717919;28;20134;-74
2022/02/08 03:31:53;;;;;;;35.37;13.63;;;;;;;3.07;100.00;99254.00;30742589;29;20043;-72
2022/02/08 03:46:55;;;;;;;31.07;12.80;;;;;;;3.04;100.00;99247.50;30720111;28;20066;-73
2022/02/08 04:17:15;;;;;;;24.67;12.00;;;;;;;2.95;100.00;99271.25;30736036;28;20078;-73
2022/02/08 04:32:26;;;;;;;26.80;11.17;;;;;;;2.77;100.00;99270.53;30717919;28;20107;-74
2022/02/08 04:47:48;;;;;;;18.53;8.83;;;;;;;2.72;100.00;99260.19;30708171;28;20060;-73
2022/02/08 05:49:07;;;;;;;26.30;10.87;;;;;;;3.15;100.00;99324.44;30718218;28;20043;-73
2022/02/08 06:04:11;;;;;;;28.70;11.10;;;;;;;3.21;100.00;99347.81;30724801;28;20082;-73
2022/02/08 06:19:12;;;;;;;28.97;12.30;;;;;;;3.37;100.00;99360.78;30725784;28;20055;-71
2022/02/08 06:34:19;;;;;;;25.77;11.23;;;;;;;3.40;100.00;99370.75;30711533;28;20428;-72
2022/02/08 06:49:21;;;;;;;31.13;11.20;;;;;;;3.39;100.00;99363.84;30731707;28;20520;-74
2022/02/08 07:04:23;;;;;;;32.83;13.33;;;;;;;3.55;100.00;99388.34;30740940;28;20062;-73
2022/02/08 07:19:25;;;;;;;41.57;13.60;;;;;;;3.65;100.00;99392.91;30708452;28;20063;-72
2022/02/08 07:34:44;;;;;;;45.77;13.30;;;;;;;3.89;100.00;99407.41;30757835;28;20470;-74
2022/02/08 07:49:46;;;;;;;29.47;10.93;;;;;;;4.16;100.00;99402.31;30700782;28;20425;-74
2022/02/08 08:04:48;;;;;;;34.07;11.70;;;;;;;4.37;100.00;99402.19;30701437;28;20434;-73
2022/02/08 08:19:51;;;;;;;32.10;12.93;;;;;;;4.55;100.00;99420.13;30729141;28;20169;-73
2022/02/08 08:34:55;;;;;;;48.47;15.73;;;;;;;4.65;100.00;99430.81;30736347;28;20059;-74
2022/02/08 09:04:59;;;;;;;42.23;15.20;;;;;;;4.62;100.00;99425.47;30737079;28;20069;-72
2022/02/08 09:35:08;;;;;;;38.92;14.77;;;;;;;4.87;100.00;99412.63;30716498;28;20058;-73
2022/02/08 09:50:19;;;;;;;45.50;15.97;;;;;;;4.92;100.00;99417.56;30731099;28;20090;-73
2022/02/08 10:05:21;;;;;;;45.53;16.33;;;;;;;4.90;100.00;99427.97;30719954;28;20143;-72
2022/02/08 10:50:57;;;;;;;52.60;20.43;;;;;;;4.90;100.00;99425.28;30714774;29;20153;-72
2022/02/08 11:06:09;;;;;;;79.07;24.30;;;;;;;4.97;100.00;99419.81;30743495;28;20398;-74
2022/02/08 11:21:43;;;;;;;75.93;26.80;;;;;;;4.91;100.00;99437.56;30748172;28;20512;-73
2022/02/08 12:07:18;;;;;;;83.93;25.80;;;;;;;4.72;100.00;99475.72;30722731;28;20063;-74
2022/02/08 12:53:57;;;;;;;61.43;18.83;;;;;;;4.68;100.00;99547.56;30725040;28;20130;-74
2022/02/08 14:11:10;;;;;;;41.67;17.63;;;;;;;3.95;100.00;99652.94;30712434;28;20126;-73
2022/02/08 15:12:11;;;;;;;40.93;15.90;;;;;;;2.96;100.00;99728.59;30717391;28;20051;-73
2022/02/08 15:27:14;;;;;;;33.83;14.70;;;;;;;2.75;100.00;99728.47;30755365;28;20055;-73
2022/02/08 15:42:19;;;;;;;28.37;13.57;;;;;;;2.60;100.00;99740.25;30735122;28;20073;-74
2022/02/08 16:28:02;;;;;;;27.73;14.40;;;;;;;2.45;100.00;99787.59;30720431;28;20051;-80
2022/02/08 16:58:34;;;;;;;31.20;14.93;;;;;;;2.29;100.00;99797.81;30697692;28;20062;-81
2022/02/08 17:59:23;;;;;;;25.93;12.37;;;;;;;1.98;100.00;99863.28;30700274;28;20088;-79
2022/02/08 18:14:27;;;;;;;18.80;9.50;;;;;;;1.78;100.00;99872.63;30733561;28;20075;-78
2022/02/08 19:31:12;;;;;;;10.60;6.13;;;;;;;1.62;100.00;99910.28;30725143;29;20146;-80
2022/02/08 19:46:17;;;;;;;15.80;8.03;;;;;;;1.52;100.00;99940.31;30698322;28;20081;-79
2022/02/08 20:01:27;;;;;;;15.87;8.57;;;;;;;1.48;100.00;99959.00;30715939;28;20052;-79
2022/02/08 20:16:31;;;;;;;20.93;8.63;;;;;;;1.44;100.00;99968.09;30697429;28;20151;-79
2022/02/08 20:31:33;;;;;;;15.27;8.03;;;;;;;1.38;100.00;99975.66;30712451;28;20062;-83
2022/02/08 20:46:35;;;;;;;19.57;8.57;;;;;;;1.33;100.00;99989.34;30723056;28;20147;-81
2022/02/08 21:01:40;;;;;;;14.17;7.53;;;;;;;1.21;100.00;99982.25;30702530;28;20485;-79
2022/02/08 21:16:45;;;;;;;13.73;6.63;;;;;;;1.17;100.00;99967.31;30707264;28;20067;-79
2022/02/08 21:32:23;;;;;;;14.67;7.43;;;;;;;0.95;100.00;99952.81;30695738;28;20130;-81
2022/02/08 21:47:44;;;;;;;20.53;9.27;;;;;;;0.88;100.00;99953.47;30722563;28;20055;-80
2022/02/08 22:02:46;;;;;;;19.80;8.47;;;;;;;0.77;100.00;99952.50;30703938;28;20079;-79
2022/02/08 22:18:33;;;;;;;13.00;7.07;;;;;;;0.68;100.00;99950.09;30682834;28;20059;-79
2022/02/08 22:33:36;;;;;;;12.43;6.37;;;;;;;0.50;100.00;99954.31;30721514;28;20065;-78
2022/02/08 22:48:39;;;;;;;11.60;6.00;;;;;;;0.65;100.00;99968.72;30704243;28;20573;-78
2022/02/08 23:03:41;;;;;;;10.80;6.33;;;;;;;0.64;100.00;99988.56;30723272;28;20502;-77
2022/02/08 23:49:29;;;;;;;9.93;5.03;;;;;;;0.44;100.00;100032.44;30696684;28;20433;-78
